Time;durP1;ratioP1;P1;durP2;ratioP2;P2;SDS_P1;SDS_P2;PMS_P1;PMS_P2;Temp;Humidity;BMP_temperature;BMP_pressure;BME280_temperature;BME280_humidity;BME280_pressure;Samples;Min_cycle;Max_cycle;Signal;HPM_P1;HPM_P2
2022/04/16 00:01:17;;;;;;;34.30;21.33;;;;;;;7.90;92.75;99427.73;4284742;81;21062;-85
2022/04/16 00:07:18;;;;;;;34.10;22.02;;;;;;;7.84;92.71;99432.40;4274786;81;21053;-84
2022/04/16 00:13:21;;;;;;;38.85;23.77;;;;;;;7.81;92.85;99431.73;4260947;80;22005;-85
2022/04/16 00:19:23;;;;;;;39.05;24.80;;;;;;;7.81;93.10;99434.45;4275485;82;21546;-85
2022/04/16 00:25:24;;;;;;;40.60;26.17;;;;;;;7.80;92.88;99436.94;4262687;82;21068;-84
2022/04/16 00:31:28;;;;;;;47.67;29.07;;;;;;;7.76;92.94;99430.05;4260540;82;21088;-85
2022/04/16 00:37:30;;;;;;;49.85;28.17;;;;;;;7.71;93.01;99423.47;4261632;82;21047;-85
2022/04/16 00:43:31;;;;;;;50.65;31.15;;;;;;;7.68;93.12;99422.80;4270835;82;21085;-85
2022/04/16 00:49:33;;;;;;;52.20;29.55;;;;;;;7.68;93.26;99424.72;4266133;82;21029;-85
2022/04/16 00:55:37;;;;;;;48.45;29.18;;;;;;;7.68;93.55;99421.44;4265103;81;21107;-84
2022/04/16 01:01:38;;;;;;;47.43;29.18;;;;;;;7.70;93.80;99424.63;4272199;82;21184;-84
2022/04/16 01:07:58;;;;;;;44.83;26.37;;;;;;;7.70;93.80;99421.09;4278893;82;21035;-86
2022/04/16 01:14:01;;;;;;;39.13;25.40;;;;;;;7.71;93.79;99419.94;4176815;82;21476;-85
2022/04/16 01:20:04;;;;;;;34.48;23.47;;;;;;;7.72;93.87;99421.55;4243737;82;21004;-85
2022/04/16 01:26:06;;;;;;;38.40;23.87;;;;;;;7.73;94.01;99423.92;4326376;80;20974;-85
2022/04/16 01:32:09;;;;;;;37.85;24.27;;;;;;;7.74;93.77;99417.33;4297515;80;21062;-85
2022/04/16 01:38:11;;;;;;;41.73;26.52;;;;;;;7.76;93.99;99427.32;4283762;81;21088;-85
2022/04/16 01:44:13;;;;;;;42.13;28.27;;;;;;;7.78;94.00;99429.11;4288859;81;22238;-86
2022/04/16 01:50:15;;;;;;;45.10;27.42;;;;;;;7.79;93.51;99436.17;4286305;80;21062;-86
2022/04/16 01:56:16;;;;;;;34.10;22.32;;;;;;;7.69;93.45;99450.83;4289016;80;20991;-86
2022/04/16 02:02:17;;;;;;;31.80;18.98;;;;;;;7.65;93.47;99451.30;4292680;81;21028;-86
2022/04/16 02:08:18;;;;;;;19.62;13.55;;;;;;;7.61;93.18;99443.60;4293163;81;21027;-85
2022/04/16 02:14:21;;;;;;;6.70;4.22;;;;;;;7.51;93.17;99450.88;4307249;80;21043;-86
2022/04/16 02:20:23;;;;;;;18.15;6.92;;;;;;;7.42;93.38;99458.39;4304124;81;21050;-86
2022/04/16 02:26:26;;;;;;;16.17;5.80;;;;;;;7.29;93.21;99450.80;4305251;81;21683;-86
2022/04/16 02:32:28;;;;;;;9.18;5.42;;;;;;;7.23;93.42;99467.15;4302817;80;21013;-86
2022/04/16 02:38:29;;;;;;;6.55;4.53;;;;;;;7.20;93.69;99464.30;4306478;81;21361;-86
2022/04/16 02:50:53;;;;;;;11.28;5.97;;;;;;;7.02;93.70;99469.73;4308630;80;22194;-87
2022/04/16 02:56:55;;;;;;;6.20;4.40;;;;;;;6.90;93.84;99475.18;4304564;81;20972;-86
2022/04/16 03:02:57;;;;;;;14.63;7.78;;;;;;;6.84;93.94;99481.98;4314012;81;21063;-87
2022/04/16 03:08:58;;;;;;;10.65;4.80;;;;;;;6.73;93.99;99485.72;4295026;81;21500;-86
2022/04/16 03:21:21;;;;;;;7.42;3.90;;;;;;;6.53;94.83;99506.17;4305518;80;21051;-86
2022/04/16 03:27:22;;;;;;;8.10;4.05;;;;;;;6.43;94.67;99515.55;4307203;81;21824;-86
2022/04/16 03:33:24;;;;;;;14.13;4.20;;;;;;;6.37;94.45;99524.47;4310008;81;21895;-85
2022/04/16 03:39:25;;;;;;;5.80;2.25;;;;;;;6.24;94.80;99529.64;4312954;81;20978;-86
2022/04/16 03:45:30;;;;;;;13.38;3.95;;;;;;;6.15;94.97;99541.13;4358613;81;21582;-86
2022/04/16 03:51:32;;;;;;;5.15;2.50;;;;;;;6.05;94.58;99546.98;4274196;81;21825;-86
2022/04/16 04:03:54;;;;;;;19.00;4.85;;;;;;;6.03;94.66;99557.38;4311316;80;20961;-86
2022/04/16 04:09:55;;;;;;;28.00;6.55;;;;;;;6.02;94.39;99570.75;4305162;80;20983;-86
2022/04/16 04:15:57;;;;;;;4.17;2.12;;;;;;;6.08;94.94;99579.49;4293588;81;21542;-87
2022/04/16 04:21:58;;;;;;;14.85;5.53;;;;;;;6.06;94.66;99594.77;4212869;82;21037;-86
2022/04/16 04:28:01;;;;;;;17.15;4.95;;;;;;;6.05;94.45;99589.67;4297009;81;21539;-84
2022/04/16 04:34:02;;;;;;;8.13;3.22;;;;;;;6.04;94.40;99604.39;4284848;81;21146;-86
2022/04/16 04:40:05;;;;;;;5.35;3.00;;;;;;;5.94;94.50;99613.72;4221048;82;21478;-86
2022/04/16 04:46:07;;;;;;;3.45;2.77;;;;;;;5.88;94.39;99621.84;4221167;83;20994;-86
2022/04/16 04:52:08;;;;;;;10.90;3.50;;;;;;;5.83;94.54;99636.16;4215394;83;21478;-86
2022/04/16 04:58:09;;;;;;;5.97;2.33;;;;;;;5.70;94.59;99643.38;4230957;83;21908;-86
2022/04/16 05:04:10;;;;;;;15.43;5.78;;;;;;;5.63;94.60;99657.24;4293857;81;21092;-86
2022/04/16 05:10:12;;;;;;;7.45;2.50;;;;;;;5.55;94.98;99664.86;4251729;82;21133;-86
2022/04/16 05:16:15;;;;;;;2.83;1.90;;;;;;;5.43;94.97;99671.55;4291642;81;21021;-86
2022/04/16 05:22:16;;;;;;;6.37;1.57;;;;;;;5.30;95.09;99677.96;4301529;80;20991;-86
2022/04/16 05:28:17;;;;;;;2.90;1.80;;;;;;;5.25;94.87;99691.70;4217590;83;21006;-86
2022/04/16 05:34:19;;;;;;;9.95;4.08;;;;;;;5.23;95.29;99700.17;4306126;81;22046;-86
2022/04/16 05:40:20;;;;;;;15.58;5.00;;;;;;;5.36;95.50;99699.19;4207579;83;21549;-86
2022/04/16 05:46:21;;;;;;;5.50;2.17;;;;;;;5.49;95.81;99700.92;4305079;80;20990;-87
2022/04/16 05:52:23;;;;;;;5.53;3.00;;;;;;;5.57;95.64;99713.68;4230362;83;21020;-85
2022/04/16 05:58:24;;;;;;;2.20;1.22;;;;;;;5.53;95.37;99718.14;4281079;82;20965;-85
2022/04/16 06:04:25;;;;;;;10.68;3.00;;;;;;;5.34;95.09;99728.57;4266161;82;21055;-86
2022/04/16 06:10:27;;;;;;;1.95;1.27;;;;;;;5.26;94.99;99732.09;4368901;79;21328;-86
2022/04/16 06:16:28;;;;;;;0.85;0.75;;;;;;;5.14;94.99;99729.25;4359272;80;21489;-86
2022/04/16 06:22:30;;;;;;;2.95;1.50;;;;;;;5.11;95.04;99742.66;4346944;80;21089;-85
2022/04/16 06:28:31;;;;;;;2.02;1.20;;;;;;;5.12;95.18;99744.27;4358981;80;21057;-84
2022/04/16 06:34:33;;;;;;;3.72;1.40;;;;;;;5.14;95.24;99749.60;4362657;79;21004;-85
2022/04/16 06:40:34;;;;;;;5.17;2.35;;;;;;;5.14;95.37;99755.61;4353875;80;20999;-86
2022/04/16 06:46:35;;;;;;;20.75;7.20;;;;;;;5.35;96.02;99755.98;4356484;79;21079;-85
2022/04/16 06:52:37;;;;;;;5.62;3.00;;;;;;;5.48;95.40;99768.55;4348062;80;21069;-86
2022/04/16 06:58:38;;;;;;;5.90;3.60;;;;;;;5.45;95.89;99770.55;4349076;80;21011;-86
2022/04/16 07:04:40;;;;;;;5.70;4.67;;;;;;;5.42;95.61;99778.57;4246328;82;21038;-86
2022/04/16 07:10:41;;;;;;;4.80;3.25;;;;;;;5.34;95.49;99777.44;4237812;82;21006;-84
2022/04/16 07:16:43;;;;;;;5.80;3.80;;;;;;;5.24;95.76;99785.93;4242338;82;21005;-86
2022/04/16 07:22:45;;;;;;;5.72;3.92;;;;;;;5.15;95.46;99801.43;4295110;81;21026;-86
2022/04/16 07:28:46;;;;;;;8.20;4.67;;;;;;;5.16;95.78;99807.63;4286959;80;21005;-85
2022/04/16 07:34:48;;;;;;;20.23;9.35;;;;;;;5.14;95.73;99810.67;4242370;82;21037;-85
2022/04/16 07:40:49;;;;;;;6.25;5.00;;;;;;;5.16;95.95;99827.44;4295768;81;21026;-85
2022/04/16 07:46:51;;;;;;;13.75;8.43;;;;;;;5.27;96.61;99831.98;4303667;80;21582;-85
2022/04/16 07:52:52;;;;;;;14.47;8.63;;;;;;;5.13;96.42;99834.87;4299129;81;21016;-86
2022/04/16 07:58:54;;;;;;;34.15;22.80;;;;;;;5.06;96.40;99846.73;4284934;81;21096;-86
2022/04/16 08:04:55;;;;;;;12.68;8.55;;;;;;;5.00;96.56;99852.09;4293704;81;21046;-85
2022/04/16 08:10:57;;;;;;;15.28;10.98;;;;;;;4.92;96.96;99854.23;4305035;81;21020;-84
2022/04/16 08:16:59;;;;;;;10.23;6.85;;;;;;;4.90;96.61;99855.13;4308792;81;21079;-85
2022/04/16 08:23:04;;;;;;;19.95;11.83;;;;;;;4.85;96.64;99865.54;4170947;80;9999944;-85
2022/04/16 08:29:04;;;;;;;18.57;9.95;;;;;;;4.82;96.82;99866.17;4320143;81;20988;-85
2022/04/16 08:35:06;;;;;;;20.65;12.53;;;;;;;4.82;96.85;99871.59;4294622;81;21022;-83
2022/04/16 08:41:09;;;;;;;28.55;14.03;;;;;;;4.85;97.23;99870.19;4303023;81;20983;-86
2022/04/16 08:47:12;;;;;;;22.13;15.30;;;;;;;4.84;97.09;99880.78;4347995;81;21005;-86
2022/04/16 08:53:15;;;;;;;28.50;15.13;;;;;;;4.81;97.03;99886.29;4320389;81;20971;-85
2022/04/16 08:59:17;;;;;;;16.25;11.22;;;;;;;4.81;96.94;99890.91;4309132;81;21100;-85
2022/04/16 09:05:19;;;;;;;14.85;10.25;;;;;;;4.90;97.61;99904.50;4300588;81;20983;-85
2022/04/16 09:11:24;;;;;;;12.95;8.55;;;;;;;4.85;97.53;99900.81;4298745;81;21035;-86
2022/04/16 09:17:25;;;;;;;12.93;8.33;;;;;;;4.77;97.00;99896.73;4268427;82;21576;-84
2022/04/16 09:23:26;;;;;;;25.82;11.73;;;;;;;4.85;96.77;99906.81;4345061;81;21082;-85
2022/04/16 09:29:28;;;;;;;25.80;12.35;;;;;;;4.95;96.81;99920.64;4262331;82;21021;-85
2022/04/16 09:35:35;;;;;;;11.43;7.60;;;;;;;4.90;96.41;99920.23;4250660;82;20987;-85
2022/04/16 09:41:40;;;;;;;11.63;8.75;;;;;;;4.87;96.17;99920.84;4260181;81;21028;-86
2022/04/16 09:47:44;;;;;;;10.40;7.15;;;;;;;4.92;96.07;99917.98;4276779;82;20969;-86
2022/04/16 09:53:46;;;;;;;18.92;8.35;;;;;;;5.27;95.73;99920.22;4319620;80;20932;-87
2022/04/16 09:59:52;;;;;;;10.28;6.50;;;;;;;5.72;95.56;99927.75;4305701;80;21614;-85
2022/04/16 10:05:58;;;;;;;8.90;5.90;;;;;;;5.95;95.02;99941.42;4298684;81;20964;-85
2022/04/16 10:18:20;;;;;;;6.35;4.55;;;;;;;5.43;92.15;99956.11;4310664;80;21004;-86
2022/04/16 10:24:26;;;;;;;6.80;4.58;;;;;;;5.56;90.34;99958.44;4162281;81;10000033;-84
2022/04/16 10:30:39;;;;;;;7.10;4.67;;;;;;;5.76;90.74;99961.30;4303087;81;20961;-85
2022/04/16 10:36:54;;;;;;;6.45;3.95;;;;;;;6.20;89.99;99969.71;4100154;85;20976;-84
2022/04/16 10:42:59;;;;;;;15.30;5.85;;;;;;;6.43;84.54;99975.73;4299048;80;20971;-85
2022/04/16 10:49:04;;;;;;;9.63;4.83;;;;;;;6.14;85.72;99989.45;4303854;80;21014;-85
2022/04/16 10:55:07;;;;;;;8.95;4.85;;;;;;;5.75;86.29;100002.38;4307783;81;21800;-83
2022/04/16 11:01:11;;;;;;;12.73;5.17;;;;;;;5.65;87.47;100005.41;4303575;81;21046;-84
2022/04/16 11:07:12;;;;;;;15.25;5.30;;;;;;;5.63;86.94;100007.09;4312858;81;21063;-85
2022/04/16 11:13:15;;;;;;;8.13;3.95;;;;;;;5.85;86.35;100007.53;4329185;80;20995;-85
2022/04/16 11:19:17;;;;;;;6.45;3.98;;;;;;;6.25;86.52;100009.75;4334582;80;20956;-86
2022/04/16 11:25:24;;;;;;;14.70;5.12;;;;;;;6.89;86.74;100007.05;4214148;79;9999611;-85
2022/04/16 11:37:55;;;;;;;4.67;3.05;;;;;;;7.43;83.54;100015.11;4344915;80;21010;-86
2022/04/16 11:43:58;;;;;;;10.80;5.75;;;;;;;7.98;84.39;100016.25;4312573;80;20945;-85
2022/04/16 11:50:06;;;;;;;8.20;3.90;;;;;;;8.55;83.32;100010.37;4329343;80;21015;-85
2022/04/16 11:56:06;;;;;;;4.78;2.72;;;;;;;8.61;81.56;100013.14;4207168;82;20993;-86
2022/04/16 12:02:09;;;;;;;4.00;2.60;;;;;;;8.26;80.45;100014.59;4261590;83;21013;-85
2022/04/16 12:08:11;;;;;;;4.22;2.60;;;;;;;8.06;81.28;100008.58;4209574;83;21381;-86
2022/04/16 12:14:19;;;;;;;4.33;2.52;;;;;;;7.99;80.02;100017.28;4213064;83;21684;-85
2022/04/16 12:20:22;;;;;;;14.20;3.95;;;;;;;7.85;79.81;100009.94;4313050;81;20991;-85
2022/04/16 12:26:23;;;;;;;5.50;2.55;;;;;;;8.03;80.38;100004.56;4181161;80;10000362;-85
2022/04/16 12:32:28;;;;;;;5.70;2.75;;;;;;;8.40;79.78;100014.30;4301661;81;21589;-86
2022/04/16 12:38:30;;;;;;;6.53;2.40;;;;;;;8.66;77.85;100017.00;4305760;80;21895;-85
2022/04/16 12:44:31;;;;;;;2.70;1.60;;;;;;;8.66;76.21;100014.86;4300086;81;21567;-86
2022/04/16 12:50:33;;;;;;;4.75;2.58;;;;;;;9.40;74.97;100007.98;4309993;81;20981;-87
2022/04/16 12:56:34;;;;;;;3.05;1.65;;;;;;;10.09;71.64;100008.32;4312340;81;20981;-87
2022/04/16 13:02:42;;;;;;;4.58;2.67;;;;;;;9.69;65.02;100023.89;4296731;81;21982;-86
2022/04/16 13:08:44;;;;;;;6.05;2.30;;;;;;;8.97;69.19;100030.94;4305449;81;20963;-86
2022/04/16 13:14:48;;;;;;;3.25;1.90;;;;;;;8.68;66.60;100039.30;4306454;81;21461;-87
2022/04/16 13:20:49;;;;;;;7.00;2.00;;;;;;;8.63;64.76;100036.78;4311835;80;21016;-87
2022/04/16 13:26:50;;;;;;;3.87;1.55;;;;;;;8.75;61.39;100039.56;4299162;81;21029;-86
2022/04/16 13:32:52;;;;;;;9.40;3.08;;;;;;;8.87;62.14;100034.13;4302428;81;21027;-86
2022/04/16 13:38:55;;;;;;;4.37;2.08;;;;;;;9.06;60.81;100036.31;4354130;81;21006;-86
2022/04/16 13:44:57;;;;;;;9.30;4.60;;;;;;;9.16;59.52;100033.15;4302386;80;21033;-86
2022/04/16 13:50:58;;;;;;;5.53;2.62;;;;;;;9.10;57.97;100033.11;4296907;81;20978;-87
2022/04/16 13:56:59;;;;;;;4.70;2.33;;;;;;;8.93;56.87;100032.77;4300563;81;20985;-86
2022/04/16 14:03:01;;;;;;;14.25;4.28;;;;;;;9.18;55.10;100026.19;4303031;80;21580;-87
2022/04/16 14:09:02;;;;;;;2.80;1.62;;;;;;;9.76;56.28;100033.67;4299816;81;21911;-87
2022/04/16 14:15:05;;;;;;;2.77;1.85;;;;;;;9.85;56.90;100035.73;4297413;81;21556;-87
2022/04/16 14:21:08;;;;;;;2.95;1.62;;;;;;;9.52;52.80;100042.72;4306787;81;21528;-87
2022/04/16 14:27:09;;;;;;;5.03;1.70;;;;;;;9.22;55.04;100037.24;4262308;81;21059;-87
2022/04/16 14:33:10;;;;;;;3.05;1.70;;;;;;;9.18;52.93;100046.68;4293549;80;21025;-87
2022/04/16 14:39:11;;;;;;;3.00;1.77;;;;;;;8.96;51.22;100042.20;4292833;82;21332;-86
2022/04/16 14:45:14;;;;;;;2.30;1.42;;;;;;;8.81;53.89;100040.94;4299414;81;21089;-86
2022/04/16 14:51:16;;;;;;;9.25;2.98;;;;;;;9.18;50.78;100039.85;4203737;82;21058;-86
2022/04/16 14:57:17;;;;;;;1.52;0.98;;;;;;;9.58;52.47;100043.48;4143987;83;10000394;-85
2022/04/16 15:03:18;;;;;;;2.47;1.37;;;;;;;9.29;49.13;100062.05;4230647;83;21513;-87
2022/04/16 15:09:19;;;;;;;4.12;1.40;;;;;;;8.81;50.11;100057.32;4223977;82;21588;-86
2022/04/16 15:15:21;;;;;;;16.62;4.97;;;;;;;8.67;50.38;100063.65;4206896;83;21483;-87
2022/04/16 15:21:22;;;;;;;2.17;1.37;;;;;;;8.52;51.47;100064.84;4215026;82;21413;-86
2022/04/16 15:27:23;;;;;;;2.95;1.92;;;;;;;8.48;49.00;100062.54;4215717;83;21568;-86
2022/04/16 15:33:25;;;;;;;1.82;1.20;;;;;;;8.26;50.53;100060.16;4201069;83;21599;-87
2022/04/16 15:39:27;;;;;;;5.83;2.05;;;;;;;8.09;50.38;100066.53;4219805;83;21860;-87
2022/04/16 15:45:29;;;;;;;3.22;1.90;;;;;;;7.94;51.33;100069.28;4214856;83;21462;-87
2022/04/16 15:51:33;;;;;;;8.05;4.17;;;;;;;7.86;50.99;100075.59;4214488;82;21043;-87
2022/04/16 15:57:34;;;;;;;7.65;2.33;;;;;;;7.74;51.23;100074.16;4091722;83;10000141;-86
2022/04/16 16:03:38;;;;;;;2.92;1.70;;;;;;;7.70;50.90;100085.49;4203179;83;21009;-86
2022/04/16 16:09:40;;;;;;;9.20;3.47;;;;;;;7.64;49.47;100091.45;4201986;83;21012;-85
2022/04/16 16:15:41;;;;;;;3.42;2.00;;;;;;;7.56;50.00;100093.66;4220996;83;21001;-86
2022/04/16 16:21:42;;;;;;;6.75;3.02;;;;;;;7.56;50.13;100098.52;4242434;84;20992;-85
2022/04/16 16:27:44;;;;;;;14.00;4.22;;;;;;;7.43;51.01;100101.48;4244907;81;21624;-85
2022/04/16 16:33:46;;;;;;;17.57;5.03;;;;;;;7.31;51.26;100101.37;4249716;81;21881;-87
2022/04/16 16:39:47;;;;;;;4.45;2.50;;;;;;;7.20;51.71;100109.67;4240473;82;21513;-85
2022/04/16 16:45:48;;;;;;;4.90;2.40;;;;;;;7.14;51.84;100119.92;4238103;82;20962;-86
2022/04/16 16:51:50;;;;;;;5.97;2.15;;;;;;;7.12;51.69;100124.92;4286355;81;20947;-87
2022/04/16 16:57:51;;;;;;;5.45;2.58;;;;;;;7.04;51.72;100125.73;4320583;81;20979;-86
2022/04/16 17:10:17;;;;;;;11.45;3.27;;;;;;;6.87;51.78;100141.30;4278528;81;21052;-86
2022/04/16 17:22:37;;;;;;;9.65;3.33;;;;;;;6.72;52.15;100152.11;4242560;82;20996;-86
2022/04/16 17:28:39;;;;;;;6.40;2.98;;;;;;;6.65;52.38;100158.61;4240858;82;21996;-87
2022/04/16 17:34:41;;;;;;;14.10;6.17;;;;;;;6.57;52.64;100158.60;4244886;82;21009;-85
2022/04/16 17:40:43;;;;;;;20.82;5.83;;;;;;;6.52;52.87;100163.64;4280965;82;21802;-86
2022/04/16 17:46:44;;;;;;;15.32;4.47;;;;;;;6.50;53.15;100178.70;4252055;82;20976;-87
2022/04/16 17:52:46;;;;;;;10.03;3.52;;;;;;;6.45;53.27;100181.56;4118545;81;10000410;-86
2022/04/16 17:58:47;;;;;;;17.82;7.22;;;;;;;6.38;53.53;100184.76;4240876;82;21384;-86
2022/04/16 18:04:48;;;;;;;33.67;9.30;;;;;;;6.34;53.73;100194.69;4243815;82;21869;-86
2022/04/16 18:10:49;;;;;;;19.27;6.30;;;;;;;6.28;53.93;100206.26;4238237;82;21006;-86
2022/04/16 18:16:52;;;;;;;11.33;4.33;;;;;;;6.25;54.30;100219.13;4199033;81;21041;-86
2022/04/16 18:22:53;;;;;;;8.78;4.17;;;;;;;6.22;54.45;100217.59;4231913;83;21026;-86
2022/04/16 18:28:54;;;;;;;16.23;6.03;;;;;;;6.19;54.92;100213.60;4213537;83;21499;-87
2022/04/16 18:34:56;;;;;;;28.67;7.87;;;;;;;6.15;54.91;100220.77;4195182;83;21583;-86
2022/04/16 18:40:57;;;;;;;15.00;6.17;;;;;;;6.10;55.10;100220.95;4199199;82;21003;-86
2022/04/16 18:47:03;;;;;;;11.73;5.20;;;;;;;6.05;55.34;100231.95;4219568;83;21017;-86
2022/04/16 18:53:05;;;;;;;20.37;6.33;;;;;;;6.01;55.54;100235.62;4098734;82;9999796;-86
2022/04/16 18:59:06;;;;;;;31.73;10.55;;;;;;;5.95;55.74;100228.16;4183207;83;21018;-86
2022/04/16 19:11:17;;;;;;;20.55;8.65;;;;;;;5.88;56.16;100237.88;4209232;83;21094;-86
2022/04/16 19:17:20;;;;;;;19.37;8.35;;;;;;;5.84;57.27;100237.70;4178357;83;21069;-86
2022/04/16 19:23:22;;;;;;;14.70;6.75;;;;;;;5.80;57.04;100239.97;4191072;83;21024;-85
2022/04/16 19:29:23;;;;;;;14.50;6.72;;;;;;;5.78;58.18;100234.85;4176659;83;21073;-85
2022/04/16 19:35:24;;;;;;;16.37;6.53;;;;;;;5.76;59.41;100238.43;4187733;84;21680;-86
2022/04/16 19:41:26;;;;;;;12.78;5.80;;;;;;;5.65;59.75;100245.83;4178411;83;21060;-85
2022/04/16 19:47:27;;;;;;;9.48;5.37;;;;;;;5.57;59.85;100237.08;4197001;83;21069;-85
2022/04/16 19:53:28;;;;;;;12.88;4.97;;;;;;;5.51;60.45;100240.46;4181524;84;21033;-85
2022/04/16 19:59:30;;;;;;;13.90;6.47;;;;;;;5.44;60.09;100236.59;4188639;83;21011;-85
2022/04/16 20:05:32;;;;;;;15.00;6.17;;;;;;;5.27;60.63;100237.84;4174878;84;21021;-86
2022/04/16 20:11:35;;;;;;;14.93;6.45;;;;;;;5.18;61.37;100238.36;4188519;84;21490;-84
2022/04/16 20:17:37;;;;;;;18.05;7.25;;;;;;;5.02;61.03;100237.93;4207269;83;21005;-86
2022/04/16 20:23:38;;;;;;;17.30;8.80;;;;;;;4.98;63.04;100240.21;4192631;82;21066;-85
2022/04/16 20:29:39;;;;;;;19.80;8.33;;;;;;;4.93;63.21;100240.33;4318892;81;20975;-85
2022/04/16 20:35:41;;;;;;;15.68;8.08;;;;;;;4.81;62.80;100238.96;4296980;81;21034;-85
2022/04/16 20:48:03;;;;;;;26.42;13.60;;;;;;;4.69;64.82;100225.14;4314787;80;21020;-86
2022/04/16 20:54:04;;;;;;;27.67;12.53;;;;;;;4.60;64.89;100235.09;4317818;81;21232;-86
2022/04/16 21:00:07;;;;;;;31.27;14.15;;;;;;;4.51;65.11;100230.16;4259822;82;21028;-85
2022/04/16 21:06:08;;;;;;;34.43;18.45;;;;;;;4.52;65.84;100221.47;4254842;82;21073;-85
2022/04/16 21:12:12;;;;;;;28.02;14.55;;;;;;;4.47;65.01;100218.87;4284400;81;20967;-85
2022/04/16 21:18:13;;;;;;;28.57;15.60;;;;;;;4.45;66.37;100225.95;4321296;80;21074;-85
2022/04/16 21:24:14;;;;;;;43.02;20.92;;;;;;;4.41;67.21;100225.52;4274538;80;21025;-86
2022/04/16 21:30:19;;;;;;;40.40;20.25;;;;;;;4.33;67.44;100218.91;4160931;84;21634;-85
2022/04/16 21:36:20;;;;;;;47.48;23.77;;;;;;;4.30;67.74;100221.42;4261309;81;20964;-85
2022/04/16 21:42:22;;;;;;;51.45;26.15;;;;;;;4.29;68.24;100227.95;4309850;80;21006;-85
2022/04/16 21:48:23;;;;;;;44.65;21.48;;;;;;;4.30;68.35;100224.94;4257810;82;21993;-86
2022/04/16 21:54:24;;;;;;;98.70;38.85;;;;;;;4.30;68.92;100226.30;4267841;82;21052;-85
2022/04/16 22:00:46;;;;;;;139.75;56.88;;;;;;;4.25;69.22;100229.66;4261979;82;21025;-85
2022/04/16 22:06:49;;;;;;;83.85;37.40;;;;;;;4.15;69.11;100230.66;4275834;82;21009;-85
2022/04/16 22:12:53;;;;;;;63.40;29.07;;;;;;;4.11;69.88;100232.39;4254594;82;20978;-85
2022/04/16 22:18:55;;;;;;;50.33;24.40;;;;;;;4.02;69.89;100226.08;4248081;82;21019;-86
2022/04/16 22:24:56;;;;;;;38.58;19.17;;;;;;;3.92;69.91;100225.46;4278877;81;21054;-86
2022/04/16 22:30:58;;;;;;;40.83;21.12;;;;;;;3.80;71.15;100225.98;4303882;80;21949;-85
2022/04/16 22:43:19;;;;;;;45.55;23.65;;;;;;;3.69;71.63;100222.40;4265810;81;21732;-85
2022/04/16 22:49:20;;;;;;;44.67;24.00;;;;;;;3.60;71.48;100220.14;4282020;80;21010;-85
2022/04/16 22:55:22;;;;;;;46.65;21.48;;;;;;;3.55;72.04;100214.28;4304678;80;21026;-85
2022/04/16 23:01:24;;;;;;;44.55;19.67;;;;;;;3.44;72.31;100205.27;4313878;80;20998;-85
2022/04/16 23:07:27;;;;;;;42.25;19.70;;;;;;;3.21;71.92;100207.84;4313007;81;21626;-86
2022/04/16 23:13:29;;;;;;;46.55;20.85;;;;;;;3.09;72.34;100203.45;4317858;80;21087;-85
2022/04/16 23:19:30;;;;;;;86.70;37.70;;;;;;;3.02;72.51;100201.66;4348352;80;21007;-85
2022/04/16 23:25:32;;;;;;;45.17;22.77;;;;;;;2.97;73.16;100205.02;4340147;80;21937;-85
2022/04/16 23:31:34;;;;;;;36.20;18.60;;;;;;;2.95;73.71;100208.02;4325911;80;21633;-86
2022/04/16 23:37:36;;;;;;;42.85;23.42;;;;;;;3.01;74.11;100201.42;4349135;80;21022;-85
2022/04/16 23:43:38;;;;;;;46.30;22.48;;;;;;;2.93;72.95;100199.93;4319050;80;21014;-86
2022/04/16 23:49:40;;;;;;;36.03;17.32;;;;;;;2.89;73.99;100194.33;4314366;80;21979;-85
2022/04/16 23:55:41;;;;;;;34.08;19.00;;;;;;;2.89;75.08;100184.87;4338913;80;21004;-86
